createdAt,value
2017-08-01T00:00:36.325Z,84.19
2017-08-01T00:01:36.323Z,84.19
2017-08-01T00:02:36.014Z,84.19
2017-08-01T00:03:36.323Z,84.83
2017-08-01T00:04:36.316Z,84.73
2017-08-01T00:05:36.319Z,84.44
2017-08-01T00:06:36.312Z,84.54
2017-08-01T00:07:36.310Z,84.63
2017-08-01T00:08:36.409Z,84.83
2017-08-01T00:09:36.307Z,84.73
2017-08-01T00:10:36.300Z,85.11
2017-08-01T00:11:36.299Z,85.11
2017-08-01T00:12:36.296Z,85.21
2017-08-01T00:13:36.295Z,85.11
2017-08-01T00:14:36.297Z,84.83
2017-08-01T00:15:36.291Z,84.83
2017-08-01T00:16:36.290Z,85.02
2017-08-01T00:17:36.285Z,85.31
2017-08-01T00:18:36.281Z,85.31
2017-08-01T00:19:36.384Z,85.11
2017-08-01T00:20:36.276Z,85.4
2017-08-01T00:21:36.277Z,85.4
2017-08-01T00:22:36.272Z,85.6
2017-08-01T00:23:36.272Z,85.4
2017-08-01T00:24:36.269Z,85.21
2017-08-01T00:25:36.268Z,85.4
2017-08-01T00:26:36.267Z,85.11
2017-08-01T00:27:36.261Z,85.11
2017-08-01T00:28:36.360Z,85.4
2017-08-01T00:29:36.258Z,85.31
2017-08-01T00:30:36.258Z,85.4
2017-08-01T00:31:36.257Z,85.78
2017-08-01T00:32:36.351Z,86.13
2017-08-01T00:33:36.249Z,85.6
2017-08-01T00:34:36.248Z,85.55
2017-08-01T00:35:36.250Z,85.6
2017-08-01T00:36:36.242Z,85.36
2017-08-01T00:37:36.244Z,85.6
2017-08-01T00:38:36.251Z,85.6
2017-08-01T00:39:36.335Z,85.6
2017-08-01T00:40:36.230Z,85.55
2017-08-01T00:41:36.240Z,85.75
2017-08-01T00:42:35.922Z,85.84
2017-08-01T00:43:36.325Z,85.84
2017-08-01T00:44:36.225Z,85.84
2017-08-01T00:45:36.229Z,86.13
2017-08-01T00:46:36.220Z,85.94
2017-08-01T00:47:36.219Z,86.04
2017-08-01T00:48:36.213Z,86.13
2017-08-01T00:49:36.212Z,85.84
2017-08-01T00:50:36.209Z,86.22
2017-08-01T00:51:36.205Z,86.13
2017-08-01T00:52:36.207Z,86.04
2017-08-01T00:53:36.207Z,86.04
2017-08-01T00:54:35.895Z,86.61
2017-08-01T00:55:36.216Z,86.32
2017-08-01T00:56:36.195Z,86.42
2017-08-01T00:57:36.203Z,86.42
2017-08-01T00:58:36.198Z,86.52
2017-08-01T00:59:36.289Z,86.52
2017-08-01T01:00:36.198Z,86.42
2017-08-01T01:01:36.184Z,86.42
2017-08-01T01:02:36.179Z,86.32
2017-08-01T01:03:36.179Z,86.22
2017-08-01T01:04:36.177Z,86.42
2017-08-01T01:05:36.175Z,86.13
2017-08-01T01:06:36.185Z,86.22
2017-08-01T01:07:36.170Z,86.22
2017-08-01T01:08:36.267Z,86.42
2017-08-01T01:09:36.416Z,86.22
2017-08-01T01:10:36.163Z,86.32
2017-08-01T01:11:36.160Z,86.13
2017-08-01T01:12:35.850Z,86.42
2017-08-01T01:13:35.949Z,86.61
2017-08-01T01:14:36.254Z,86.42
2017-08-01T01:15:35.849Z,86.9
2017-08-01T01:16:36.150Z,86.32
2017-08-01T01:17:36.147Z,86.32
2017-08-01T01:18:36.145Z,86.52
2017-08-01T01:19:36.141Z,86.22
2017-08-01T01:20:36.138Z,86.9
2017-08-01T01:21:36.141Z,86.76
2017-08-01T01:22:36.135Z,86.42
2017-08-01T01:23:36.139Z,86.61
2017-08-01T01:24:36.130Z,86.61
2017-08-01T01:25:36.125Z,86.71
2017-08-01T01:26:36.124Z,86.9
2017-08-01T01:27:36.122Z,86.8
2017-08-01T01:28:36.119Z,86.9
2017-08-01T01:29:36.116Z,86.61
2017-08-01T01:30:36.217Z,86.9
2017-08-01T01:31:36.112Z,86.9
2017-08-01T01:32:36.113Z,86.61
2017-08-01T01:33:36.106Z,86.71
2017-08-01T01:34:36.124Z,86.71
2017-08-01T01:35:36.100Z,86.71
2017-08-01T01:36:36.097Z,86.71
2017-08-01T01:37:36.096Z,86.61
2017-08-01T01:38:36.095Z,86.9
2017-08-01T01:39:36.094Z,86.52
2017-08-01T01:40:36.091Z,86.22
2017-08-01T01:41:36.191Z,86.22
2017-08-01T01:42:36.090Z,87.09
2017-08-01T01:43:36.085Z,86.8
2017-08-01T01:44:36.181Z,86.42
2017-08-01T01:45:36.080Z,86.13
2017-08-01T01:46:36.177Z,86.32
2017-08-01T01:47:36.075Z,86.42
2017-08-01T01:48:36.069Z,86.32
2017-08-01T01:49:36.166Z,86.9
2017-08-01T01:50:36.065Z,86.42
2017-08-01T01:51:36.067Z,86.42
2017-08-01T01:52:36.065Z,86.42
2017-08-01T01:53:36.059Z,86.66
2017-08-01T01:54:36.058Z,86.42
2017-08-01T01:55:36.054Z,86.32
2017-08-01T01:56:35.751Z,86.52
2017-08-01T01:57:36.049Z,86.71
2017-08-01T01:58:36.048Z,86.38
2017-08-01T01:59:36.042Z,86.85
2017-08-01T02:00:36.043Z,87.24
2017-08-01T02:01:36.037Z,87.15
2017-08-01T02:02:36.036Z,86.95
2017-08-01T02:03:36.032Z,86.76
2017-08-01T02:04:36.134Z,87.43
2017-08-01T02:05:36.031Z,87.24
2017-08-01T02:06:36.027Z,87.05
2017-08-01T02:07:36.026Z,87.05
2017-08-01T02:08:36.029Z,87.43
2017-08-01T02:09:36.124Z,87.24
2017-08-01T02:10:36.022Z,87.15
2017-08-01T02:11:36.016Z,87.05
2017-08-01T02:12:36.011Z,86.85
2017-08-01T02:13:36.012Z,86.85
2017-08-01T02:14:36.111Z,86.85
2017-08-01T02:15:36.004Z,86.8
2017-08-01T02:16:36.006Z,86.76
2017-08-01T02:17:36.000Z,86.9
2017-08-01T02:18:36.002Z,87.05
2017-08-01T02:19:35.997Z,86.9
2017-08-01T02:20:35.993Z,86.85
2017-08-01T02:21:35.989Z,87.05
2017-08-01T02:22:35.987Z,87.43
2017-08-01T02:23:35.985Z,87.24
2017-08-01T02:24:35.983Z,87.24
2017-08-01T02:25:36.082Z,87.24
2017-08-01T02:26:35.977Z,87.24
2017-08-01T02:27:35.976Z,86.95
2017-08-01T02:28:35.972Z,87.24
2017-08-01T02:29:35.970Z,87.05
2017-08-01T02:30:35.973Z,87.34
2017-08-01T02:31:35.969Z,87.43
2017-08-01T02:32:36.062Z,87.34
2017-08-01T02:33:35.963Z,87.43
2017-08-01T02:34:35.963Z,87.72
2017-08-01T02:35:36.059Z,87.34
2017-08-01T02:36:36.158Z,87.24
2017-08-01T02:37:35.954Z,87.34
2017-08-01T02:38:36.053Z,87.62
2017-08-01T02:39:35.949Z,88.1
2017-08-01T02:40:35.945Z,88.16
2017-08-01T02:41:35.939Z,87.87
2017-08-01T02:42:35.944Z,87.58
2017-08-01T02:43:35.938Z,87.77
2017-08-01T02:44:35.932Z,87.87
2017-08-01T02:45:35.931Z,87.96
2017-08-01T02:46:36.180Z,88.06
2017-08-01T02:47:35.924Z,88.06
2017-08-01T02:48:35.924Z,87.96
2017-08-01T02:49:35.619Z,87.96
2017-08-01T02:50:35.930Z,87.96
2017-08-01T02:51:36.021Z,87.96
2017-08-01T02:52:35.917Z,87.96
2017-08-01T02:53:36.018Z,87.68
2017-08-01T02:54:35.908Z,87.96
2017-08-01T02:55:35.909Z,88.06
2017-08-01T02:56:35.905Z,87.77
2017-08-01T02:57:35.615Z,88.06
2017-08-01T02:58:35.899Z,88.06
2017-08-01T02:59:35.898Z,88.06
2017-08-01T03:00:36.000Z,87.87
2017-08-01T03:01:35.893Z,87.87
2017-08-01T03:02:35.990Z,88.16
2017-08-01T03:03:35.888Z,88.16
2017-08-01T03:04:35.984Z,88.16
2017-08-01T03:05:35.880Z,88.06
2017-08-01T03:06:35.877Z,87.96
2017-08-01T03:07:35.977Z,87.77
2017-08-01T03:08:35.875Z,88.06
2017-08-01T03:09:35.973Z,88.25
2017-08-01T03:10:35.872Z,88.35
2017-08-01T03:11:35.866Z,88.25
2017-08-01T03:12:35.863Z,88.25
2017-08-01T03:13:35.861Z,88.25
2017-08-01T03:14:35.553Z,87.96
2017-08-01T03:15:35.855Z,87.96
2017-08-01T03:16:35.852Z,87.77
2017-08-01T03:17:35.853Z,88.54
2017-08-01T03:18:35.850Z,88.83
2017-08-01T03:19:35.849Z,88.54
2017-08-01T03:20:35.843Z,88.64
2017-08-01T03:21:35.941Z,87.58
2017-08-01T03:22:35.936Z,88.64
2017-08-01T03:23:35.837Z,88.45
2017-08-01T03:24:35.832Z,88.54
2017-08-01T03:25:35.831Z,88.64
2017-08-01T03:26:35.828Z,88.49
2017-08-01T03:27:35.824Z,88.59
2017-08-01T03:28:35.821Z,88.49
2017-08-01T03:29:35.820Z,88.59
2017-08-01T03:30:35.816Z,88.69
2017-08-01T03:31:35.814Z,88.21
2017-08-01T03:32:35.811Z,88.79
2017-08-01T03:33:35.810Z,88.4
2017-08-01T03:34:35.807Z,88.49
2017-08-01T03:35:35.802Z,88.31
2017-08-01T03:36:35.497Z,88.11
2017-08-01T03:37:35.804Z,88.31
2017-08-01T03:38:35.798Z,88.49
2017-08-01T03:39:35.793Z,88.21
2017-08-01T03:40:35.793Z,88.31
2017-08-01T03:41:35.787Z,88.21
2017-08-01T03:42:35.789Z,89.07
2017-08-01T03:43:35.783Z,88.69
2017-08-01T03:44:35.784Z,89.07
2017-08-01T03:45:35.779Z,88.98
2017-08-01T03:46:35.776Z,88.98
2017-08-01T03:47:35.774Z,88.69
2017-08-01T03:48:35.768Z,88.88
2017-08-01T03:49:35.869Z,88.88
2017-08-01T03:50:35.765Z,88.69
2017-08-01T03:51:35.768Z,88.69
2017-08-01T03:52:35.762Z,88.69
2017-08-01T03:53:35.757Z,88.59
2017-08-01T03:54:35.756Z,88.69
2017-08-01T03:55:35.753Z,88.59
2017-08-01T03:56:35.851Z,89.07
2017-08-01T03:57:35.746Z,89.26
2017-08-01T03:58:35.750Z,88.88
2017-08-01T03:59:35.747Z,89.07
2017-08-01T04:00:35.436Z,89.07
2017-08-01T04:01:35.735Z,89.36
2017-08-01T04:02:35.736Z,89.36
2017-08-01T04:03:35.729Z,89.07
2017-08-01T04:04:35.732Z,89.07
2017-08-01T04:05:35.727Z,89.17
2017-08-01T04:06:35.723Z,89.07
2017-08-01T04:07:35.723Z,89.36
2017-08-01T04:08:35.718Z,88.98
2017-08-01T04:09:35.717Z,89.07
2017-08-01T04:10:35.715Z,89.07
2017-08-01T04:11:35.712Z,88.98
2017-08-01T04:12:35.706Z,89.17
2017-08-01T04:13:35.705Z,89.07
2017-08-01T04:14:35.406Z,89.07
2017-08-01T04:15:35.494Z,88.88
2017-08-01T04:16:35.799Z,88.98
2017-08-01T04:17:35.696Z,88.79
2017-08-01T04:18:35.693Z,88.79
2017-08-01T04:19:35.686Z,88.79
2017-08-01T04:20:35.684Z,88.79
2017-08-01T04:21:35.783Z,88.88
2017-08-01T04:22:35.682Z,88.79
2017-08-01T04:23:35.679Z,88.73
2017-08-01T04:24:35.469Z,88.59
2017-08-01T04:25:35.673Z,88.73
2017-08-01T04:26:35.770Z,89.02
2017-08-01T04:27:35.667Z,88.16
2017-08-01T04:28:35.664Z,88.25
2017-08-01T04:29:35.664Z,88.45
2017-08-01T04:30:35.762Z,88.45
2017-08-01T04:31:35.656Z,88.54
2017-08-01T04:32:35.757Z,88.64
2017-08-01T04:33:35.653Z,88.54
2017-08-01T04:34:35.647Z,88.73
2017-08-01T04:35:35.645Z,88.06
2017-08-01T04:36:35.647Z,88.25
2017-08-01T04:37:35.640Z,87.96
2017-08-01T04:38:35.639Z,87.68
2017-08-01T04:39:35.636Z,87.77
2017-08-01T04:40:35.632Z,87.96
2017-08-01T04:41:35.641Z,87.87
2017-08-01T04:42:35.629Z,87.24
2017-08-01T04:43:35.728Z,86.85
2017-08-01T04:44:35.625Z,87.24
2017-08-01T04:45:35.622Z,87.15
2017-08-01T04:46:35.619Z,87.34
2017-08-01T04:47:35.719Z,86.99
2017-08-01T04:48:35.615Z,86.13
2017-08-01T04:49:35.612Z,86.13
2017-08-01T04:50:35.616Z,85.5
2017-08-01T04:51:35.605Z,84.67
2017-08-01T04:52:35.603Z,84.05
2017-08-01T04:53:35.600Z,83.22
2017-08-01T04:54:35.600Z,82.26
2017-08-01T04:55:35.598Z,81.91
2017-08-01T04:56:35.594Z,80.89
2017-08-01T04:57:35.690Z,80.12
2017-08-01T04:58:35.587Z,79.49
2017-08-01T04:59:35.588Z,78.75
2017-08-01T05:00:35.584Z,78.17
2017-08-01T05:01:35.283Z,77.3
2017-08-01T05:02:35.580Z,76.09
2017-08-01T05:03:35.575Z,75.7
2017-08-01T05:04:35.270Z,75.22
2017-08-01T05:05:35.672Z,74.58
2017-08-01T05:06:35.572Z,74.1
2017-08-01T05:07:35.571Z,72.84
2017-08-01T05:08:35.563Z,72.68
2017-08-01T05:09:35.565Z,71.94
2017-08-01T05:10:35.560Z,71.36
2017-08-01T05:11:35.567Z,70.34
2017-08-01T05:12:35.561Z,69.46
2017-08-01T05:13:35.557Z,68.79
2017-08-01T05:14:35.657Z,67.91
2017-08-01T05:15:35.557Z,68.15
2017-08-01T05:16:35.553Z,67.85
2017-08-01T05:17:35.554Z,67.37
2017-08-01T05:18:35.546Z,67.21
2017-08-01T05:19:35.646Z,66.63
2017-08-01T05:20:35.545Z,66.08
2017-08-01T05:21:35.545Z,65.3
2017-08-01T05:22:35.539Z,65.05
2017-08-01T05:23:35.542Z,64.07
2017-08-01T05:24:35.538Z,63.43
2017-08-01T05:25:35.535Z,63.53
2017-08-01T05:26:35.535Z,62.78
2017-08-01T05:27:35.634Z,62.23
2017-08-01T05:28:35.533Z,61.94
2017-08-01T05:29:35.529Z,60.71
2017-08-01T05:30:35.528Z,60.35
2017-08-01T05:31:35.529Z,59.95
2017-08-01T05:32:35.625Z,59.08
2017-08-01T05:33:35.526Z,58.69
2017-08-01T05:34:35.626Z,58.69
2017-08-01T05:35:35.623Z,58.98
2017-08-01T05:36:35.520Z,58.01
2017-08-01T05:37:35.620Z,58.11
2017-08-01T05:38:35.521Z,58.5
2017-08-01T05:39:35.627Z,58.5
2017-08-01T05:40:35.619Z,59.61
2017-08-01T05:41:35.212Z,60.55
2017-08-01T05:42:35.520Z,61.49
2017-08-01T05:43:35.514Z,61.85
2017-08-01T05:44:35.618Z,62.16
2017-08-01T05:45:35.513Z,61.19
2017-08-01T05:46:35.510Z,61.04
2017-08-01T05:47:35.509Z,60.68
2017-08-01T05:48:35.508Z,59.7
2017-08-01T05:49:35.512Z,59.54
2017-08-01T05:50:35.510Z,59.51
2017-08-01T05:51:35.608Z,60.38
2017-08-01T05:52:35.509Z,61.13
2017-08-01T05:53:35.506Z,61.49
2017-08-01T05:54:35.504Z,62.62
2017-08-01T05:55:35.502Z,63.3
2017-08-01T05:56:35.602Z,63.85
2017-08-01T05:57:35.603Z,64.43
2017-08-01T05:58:35.602Z,64.89
2017-08-01T05:59:35.504Z,65.08
2017-08-01T06:00:35.500Z,65.66
2017-08-01T06:01:35.193Z,65.75
2017-08-01T06:02:35.504Z,65.85
2017-08-01T06:03:35.599Z,65.89
2017-08-01T06:04:35.504Z,65.3
2017-08-01T06:05:35.497Z,65.53
2017-08-01T06:06:35.494Z,66.08
2017-08-01T06:07:35.497Z,66.72
2017-08-01T06:08:35.593Z,67.02
2017-08-01T06:09:35.489Z,67.56
2017-08-01T06:10:35.493Z,67.85
2017-08-01T06:11:35.496Z,69.27
2017-08-01T06:12:35.588Z,69.85
2017-08-01T06:13:35.486Z,71.17
2017-08-01T06:14:35.585Z,71.91
2017-08-01T06:15:35.486Z,72.3
2017-08-01T06:16:35.583Z,73.26
2017-08-01T06:17:35.495Z,73.26
2017-08-01T06:18:35.482Z,72.33
2017-08-01T06:19:35.578Z,71.4
2017-08-01T06:20:35.477Z,70.82
2017-08-01T06:21:35.480Z,70.18
2017-08-01T06:22:35.474Z,68.95
2017-08-01T06:23:35.482Z,67.18
2017-08-01T06:24:35.576Z,65.4
2017-08-01T06:25:35.474Z,63.42
2017-08-01T06:26:35.167Z,61.44
2017-08-01T06:27:35.583Z,59.92
2017-08-01T06:28:35.474Z,57.64
2017-08-01T06:29:35.472Z,56.01
2017-08-01T06:30:35.470Z,54.28
2017-08-01T06:31:35.166Z,53.44
2017-08-01T06:32:35.571Z,52.17
2017-08-01T06:33:35.470Z,51.41
2017-08-01T06:34:35.573Z,50.85
2017-08-01T06:35:35.571Z,50.59
2017-08-01T06:36:35.475Z,50.56
2017-08-01T06:37:35.474Z,49.98
2017-08-01T06:38:35.479Z,49.68
2017-08-01T06:39:35.475Z,49.02
2017-08-01T06:40:35.479Z,48.26
2017-08-01T06:41:35.482Z,47.11
2017-08-01T06:42:35.491Z,46.55
2017-08-01T06:43:35.482Z,45.98
2017-08-01T06:44:35.482Z,45.69
2017-08-01T06:45:35.490Z,45.76
2017-08-01T06:46:35.487Z,47.04
2017-08-01T06:47:35.484Z,47.6
2017-08-01T06:48:35.585Z,48.93
2017-08-01T06:49:35.492Z,49.85
2017-08-01T06:50:35.492Z,50.41
2017-08-01T06:51:35.593Z,49.76
2017-08-01T06:52:35.494Z,49.1
2017-08-01T06:53:35.592Z,47.67
2017-08-01T06:54:35.492Z,46.99
2017-08-01T06:55:35.498Z,45.76
2017-08-01T06:56:35.504Z,45.4
2017-08-01T06:57:35.500Z,44.93
2017-08-01T06:58:35.196Z,45.03
2017-08-01T06:59:35.502Z,45.1
2017-08-01T07:00:35.503Z,44.71
2017-08-01T07:01:35.196Z,43.85
2017-08-01T07:02:35.502Z,42.9
2017-08-01T07:03:35.514Z,42.43
2017-08-01T07:04:35.506Z,41.76
2017-08-01T07:05:35.508Z,41.09
2017-08-01T07:06:35.510Z,40.33
2017-08-01T07:07:35.514Z,39.47
2017-08-01T07:08:35.614Z,38.6
2017-08-01T07:09:35.515Z,39.29
2017-08-01T07:10:35.514Z,39.07
2017-08-01T07:11:35.518Z,38.48
2017-08-01T07:12:35.524Z,39.29
2017-08-01T07:13:35.719Z,38.31
2017-08-01T07:14:35.521Z,37.84
2017-08-01T07:15:35.624Z,37.85
2017-08-01T07:16:35.219Z,37.65
2017-08-01T07:17:35.527Z,37.08
2017-08-01T07:18:35.525Z,36.79
2017-08-01T07:19:35.677Z,36.59
2017-08-01T07:20:35.324Z,36.32
2017-08-01T07:21:35.533Z,35.63
2017-08-01T07:22:35.631Z,35.35
2017-08-01T07:23:35.530Z,35.25
2017-08-01T07:24:35.633Z,34.48
2017-08-01T07:25:35.635Z,33.48
2017-08-01T07:26:35.538Z,31.11
2017-08-01T07:27:35.534Z,31.88
2017-08-01T07:28:35.544Z,32.34
2017-08-01T07:29:35.543Z,33.51
2017-08-01T07:30:35.639Z,33.61
2017-08-01T07:31:35.540Z,33.39
2017-08-01T07:32:35.544Z,33.29
2017-08-01T07:33:35.235Z,34.46
2017-08-01T07:34:35.546Z,34.46
2017-08-01T07:35:35.542Z,34.36
2017-08-01T07:36:35.239Z,35.23
2017-08-01T07:37:35.546Z,35.7
2017-08-01T07:38:35.549Z,35.88
2017-08-01T07:39:35.699Z,35.99
2017-08-01T07:40:35.557Z,36.37
2017-08-01T07:41:35.549Z,36.18
2017-08-01T07:42:35.551Z,36.84
2017-08-01T07:43:35.550Z,37.13
2017-08-01T07:44:35.653Z,37.02
2017-08-01T07:45:35.564Z,37.41
2017-08-01T07:46:35.555Z,37.69
2017-08-01T07:47:35.248Z,37.69
2017-08-01T07:48:35.572Z,37.1
2017-08-01T07:49:35.657Z,36.9
2017-08-01T07:50:35.708Z,36.33
2017-08-01T07:51:35.558Z,36.24
2017-08-01T07:52:35.559Z,36.82
2017-08-01T07:53:35.560Z,36.8
2017-08-01T07:54:35.560Z,36.04
2017-08-01T07:55:35.563Z,36.24
2017-08-01T07:56:35.665Z,37.02
2017-08-01T07:57:35.260Z,38.75
2017-08-01T07:58:35.563Z,39.02
2017-08-01T07:59:35.565Z,38.92
2017-08-01T08:00:35.362Z,38.65
2017-08-01T08:01:35.564Z,37.96
2017-08-01T08:02:35.667Z,36.82
2017-08-01T08:03:35.568Z,37.61
2017-08-01T08:04:35.570Z,37.49
2017-08-01T08:05:35.778Z,37.51
2017-08-01T08:06:35.569Z,38.28
2017-08-01T08:07:35.567Z,38.96
2017-08-01T08:08:35.569Z,40.27
2017-08-01T08:09:35.572Z,40.84
2017-08-01T08:10:35.570Z,41.6
2017-08-01T08:11:35.580Z,42.24
2017-08-01T08:12:35.576Z,43.12
2017-08-01T08:13:35.569Z,42.24
2017-08-01T08:14:35.572Z,41.87
2017-08-01T08:15:35.577Z,41.41
2017-08-01T08:16:35.574Z,40.43
2017-08-01T08:17:35.573Z,40.55
2017-08-01T08:18:35.572Z,40.27
2017-08-01T08:19:35.672Z,39.9
2017-08-01T08:20:35.676Z,38.94
2017-08-01T08:21:35.576Z,38.84
2017-08-01T08:22:35.575Z,39.23
2017-08-01T08:23:35.268Z,39.7
2017-08-01T08:24:35.572Z,39.72
2017-08-01T08:25:35.574Z,39.92
2017-08-01T08:26:35.572Z,39.92
2017-08-01T08:27:35.574Z,39.72
2017-08-01T08:28:35.672Z,39.82
2017-08-01T08:29:35.571Z,38.55
2017-08-01T08:30:35.577Z,38.18
2017-08-01T08:31:35.576Z,37.12
2017-08-01T08:32:35.674Z,36.65
2017-08-01T08:33:35.721Z,36.66
2017-08-01T08:34:35.570Z,35.68
2017-08-01T08:35:35.265Z,35.31
2017-08-01T08:36:35.572Z,36.08
2017-08-01T08:37:35.571Z,36.74
2017-08-01T08:38:35.367Z,37.43
2017-08-01T08:39:35.572Z,38
2017-08-01T08:40:35.574Z,37.9
2017-08-01T08:41:35.770Z,37.12
2017-08-01T08:42:35.672Z,36.82
2017-08-01T08:43:35.571Z,37.02
2017-08-01T08:44:35.568Z,37.51
2017-08-01T08:45:35.576Z,38.2
2017-08-01T08:46:35.570Z,39.54
2017-08-01T08:47:35.567Z,40
2017-08-01T08:48:35.568Z,41.64
2017-08-01T08:49:35.568Z,42.89
2017-08-01T08:50:35.566Z,43.36
2017-08-01T08:51:35.668Z,43.46
2017-08-01T08:52:35.572Z,43.24
2017-08-01T08:53:35.567Z,43.73
2017-08-01T08:54:35.567Z,44.51
2017-08-01T08:55:35.566Z,45.07
2017-08-01T08:56:35.567Z,45.07
2017-08-01T08:57:35.564Z,45.36
2017-08-01T08:58:35.561Z,45.26
2017-08-01T08:59:35.663Z,45.07
2017-08-01T09:00:35.662Z,45.46
2017-08-01T09:01:35.563Z,45.58
2017-08-01T09:02:35.662Z,45.17
2017-08-01T09:03:35.560Z,44.31
2017-08-01T09:04:35.667Z,44.58
2017-08-01T09:05:35.557Z,44.87
2017-08-01T09:06:35.659Z,44.87
2017-08-01T09:07:35.562Z,45.26
2017-08-01T09:08:35.562Z,45.46
2017-08-01T09:09:35.557Z,45.56
2017-08-01T09:10:35.556Z,45.17
2017-08-01T09:11:35.559Z,45.26
2017-08-01T09:12:35.555Z,45.17
2017-08-01T09:13:35.556Z,44.87
2017-08-01T09:14:35.560Z,45.09
2017-08-01T09:15:35.554Z,44.51
2017-08-01T09:16:35.556Z,44.51
2017-08-01T09:17:35.561Z,44.7
2017-08-01T09:18:35.555Z,45.09
2017-08-01T09:19:35.552Z,44.8
2017-08-01T09:20:35.559Z,45.09
2017-08-01T09:21:35.555Z,44.8
2017-08-01T09:22:35.249Z,44.6
2017-08-01T09:23:35.661Z,45.09
2017-08-01T09:24:35.551Z,45.09
2017-08-01T09:25:35.551Z,44.8
2017-08-01T09:26:35.548Z,45.39
2017-08-01T09:27:35.551Z,45.07
2017-08-01T09:28:35.553Z,45.36
2017-08-01T09:29:35.549Z,45.95
2017-08-01T09:30:35.550Z,46.61
2017-08-01T09:31:35.341Z,47.29
2017-08-01T09:32:35.647Z,47.29
2017-08-01T09:33:35.549Z,46.69
2017-08-01T09:34:35.547Z,46.78
2017-08-01T09:35:35.543Z,47.07
2017-08-01T09:36:35.694Z,46.59
2017-08-01T09:37:35.647Z,47.17
2017-08-01T09:38:35.545Z,47.09
2017-08-01T09:39:35.541Z,47
2017-08-01T09:40:35.643Z,46.9
2017-08-01T09:41:35.543Z,47.22
2017-08-01T09:42:35.545Z,48.36
2017-08-01T09:43:35.543Z,48.17
2017-08-01T09:44:35.543Z,48.46
2017-08-01T09:45:35.243Z,48.66
2017-08-01T09:46:35.541Z,49.15
2017-08-01T09:47:35.690Z,49.15
2017-08-01T09:48:35.538Z,49.05
2017-08-01T09:49:35.542Z,48.75
2017-08-01T09:50:35.538Z,48.46
2017-08-01T09:51:35.540Z,48.07
2017-08-01T09:52:35.539Z,47.88
2017-08-01T09:53:35.686Z,47.78
2017-08-01T09:54:35.538Z,47.97
2017-08-01T09:55:35.536Z,48.07
2017-08-01T09:56:35.537Z,47.9
2017-08-01T09:57:35.536Z,47.51
2017-08-01T09:58:35.634Z,47.51
2017-08-01T09:59:35.536Z,47.12
2017-08-01T10:00:35.535Z,46.66
2017-08-01T10:01:35.633Z,47.22
2017-08-01T10:02:35.534Z,46.92
2017-08-01T10:03:35.226Z,47.22
2017-08-01T10:04:35.228Z,47.51
2017-08-01T10:05:35.684Z,47.8
2017-08-01T10:06:35.533Z,47.71
2017-08-01T10:07:35.532Z,46.92
2017-08-01T10:08:35.630Z,46.92
2017-08-01T10:09:35.530Z,46.8
2017-08-01T10:10:35.528Z,47.29
2017-08-01T10:11:35.529Z,47.22
2017-08-01T10:12:35.529Z,47.19
2017-08-01T10:13:35.526Z,47.19
2017-08-01T10:14:35.630Z,47.02
2017-08-01T10:15:35.627Z,47.19
2017-08-01T10:16:35.629Z,47.12
2017-08-01T10:17:35.525Z,47.31
2017-08-01T10:18:35.524Z,45.44
2017-08-01T10:19:35.624Z,45.05
2017-08-01T10:20:35.523Z,44.56
2017-08-01T10:21:35.522Z,44.76
2017-08-01T10:22:35.523Z,44.46
2017-08-01T10:23:35.215Z,44.37
2017-08-01T10:24:35.214Z,44.56
2017-08-01T10:25:35.523Z,43.19
2017-08-01T10:26:35.626Z,43.49
2017-08-01T10:27:35.521Z,43.68
2017-08-01T10:28:35.519Z,44.17
2017-08-01T10:29:35.522Z,44.27
2017-08-01T10:30:35.516Z,44.37
2017-08-01T10:31:35.634Z,44.56
2017-08-01T10:32:35.619Z,44.58
2017-08-01T10:33:35.513Z,43.9
2017-08-01T10:34:35.513Z,43.22
2017-08-01T10:35:35.513Z,43.61
2017-08-01T10:36:35.613Z,43.32
2017-08-01T10:37:35.782Z,43.32
2017-08-01T10:38:35.517Z,43.32
2017-08-01T10:39:35.513Z,43.41
2017-08-01T10:40:35.514Z,43.32
2017-08-01T10:41:35.514Z,43.8
2017-08-01T10:42:35.507Z,44.19
2017-08-01T10:43:35.505Z,43.9
2017-08-01T10:44:35.509Z,44.48
2017-08-01T10:45:35.211Z,44.37
2017-08-01T10:46:35.505Z,44.09
2017-08-01T10:47:35.505Z,43.99
2017-08-01T10:48:35.603Z,44.19
2017-08-01T10:49:35.501Z,43.99
2017-08-01T10:50:35.500Z,44.38
2017-08-01T10:51:35.501Z,43.12
2017-08-01T10:52:35.599Z,43.61
2017-08-01T10:53:35.500Z,43.51
2017-08-01T10:54:35.498Z,43.61
2017-08-01T10:55:35.495Z,43.51
2017-08-01T10:56:35.192Z,43.51
2017-08-01T10:57:35.498Z,43.12
2017-08-01T10:58:35.189Z,43.61
2017-08-01T10:59:35.497Z,44.51
2017-08-01T11:00:35.492Z,44.02
2017-08-01T11:01:35.188Z,44.12
2017-08-01T11:02:35.590Z,45.19
2017-08-01T11:03:35.489Z,45
2017-08-01T11:04:35.494Z,45.29
2017-08-01T11:05:35.488Z,45.39
2017-08-01T11:06:35.488Z,45.78
2017-08-01T11:07:35.489Z,45.78
2017-08-01T11:08:35.486Z,45.97
2017-08-01T11:09:35.484Z,45.78
2017-08-01T11:10:35.586Z,45.48
2017-08-01T11:11:35.485Z,45.48
2017-08-01T11:12:35.584Z,45.48
2017-08-01T11:13:35.478Z,45.68
2017-08-01T11:14:35.480Z,45.48
2017-08-01T11:15:35.175Z,45.48
2017-08-01T11:16:35.175Z,45.26
2017-08-01T11:17:35.486Z,45.09
2017-08-01T11:18:35.496Z,44.41
2017-08-01T11:19:35.174Z,43.71
2017-08-01T11:20:35.474Z,44.48
2017-08-01T11:21:35.475Z,45.07
2017-08-01T11:22:35.270Z,45.36
2017-08-01T11:23:35.574Z,45.29
2017-08-01T11:24:35.269Z,45.46
2017-08-01T11:25:35.166Z,45.36
2017-08-01T11:26:35.166Z,45.46
2017-08-01T11:27:35.163Z,46.63
2017-08-01T11:28:35.162Z,46.14
2017-08-01T11:29:35.568Z,45.95
2017-08-01T11:30:35.162Z,46.24
2017-08-01T11:31:35.163Z,46.14
2017-08-01T11:32:35.465Z,46.24
2017-08-01T11:33:35.467Z,46.63
2017-08-01T11:34:35.467Z,47.02
2017-08-01T11:35:35.463Z,47.02
2017-08-01T11:36:35.466Z,45.65
2017-08-01T11:37:35.463Z,45.46
2017-08-01T11:38:35.460Z,45.85
2017-08-01T11:39:35.463Z,46.44
2017-08-01T11:40:35.462Z,46.83
2017-08-01T11:41:35.617Z,45.85
2017-08-01T11:42:35.556Z,45.26
2017-08-01T11:43:35.456Z,44.97
2017-08-01T11:44:35.151Z,45.46
2017-08-01T11:45:35.455Z,46.63
2017-08-01T11:46:35.453Z,46.73
2017-08-01T11:47:35.452Z,47.02
2017-08-01T11:48:35.452Z,47.02
2017-08-01T11:49:35.454Z,47.22
2017-08-01T11:50:35.458Z,46.92
2017-08-01T11:51:35.450Z,46.73
2017-08-01T11:52:35.447Z,47.12
2017-08-01T11:53:35.451Z,47.12
2017-08-01T11:54:35.547Z,47.12
2017-08-01T11:55:35.446Z,46.73
2017-08-01T11:56:35.550Z,45.85
2017-08-01T11:57:35.140Z,45.75
2017-08-01T11:58:35.481Z,45.46
2017-08-01T11:59:35.441Z,44.97
2017-08-01T12:00:35.540Z,44.87
2017-08-01T12:01:35.542Z,45.07
2017-08-01T12:02:35.441Z,44.87
2017-08-01T12:03:35.440Z,45.36
2017-08-01T12:04:35.284Z,45.48
2017-08-01T12:05:35.441Z,45.48
2017-08-01T12:06:35.438Z,45.29
2017-08-01T12:07:35.436Z,45.78
2017-08-01T12:08:35.435Z,46.66
2017-08-01T12:09:35.437Z,46.56
2017-08-01T12:10:35.431Z,46.46
2017-08-01T12:11:35.434Z,45.68
2017-08-01T12:12:35.433Z,45
2017-08-01T12:13:35.432Z,44.41
2017-08-01T12:14:35.431Z,45.21
2017-08-01T12:15:35.429Z,45.19
2017-08-01T12:16:35.428Z,44.8
2017-08-01T12:17:35.431Z,45.48
2017-08-01T12:18:35.531Z,45.48
2017-08-01T12:19:35.425Z,45.39
2017-08-01T12:20:35.425Z,45.19
2017-08-01T12:21:35.424Z,45.48
2017-08-01T12:22:35.423Z,45.09
2017-08-01T12:23:35.422Z,45.19
2017-08-01T12:24:35.421Z,45.09
2017-08-01T12:25:35.421Z,45.19
2017-08-01T12:26:35.420Z,45.78
2017-08-01T12:27:35.521Z,46.07
2017-08-01T12:28:35.213Z,45.29
2017-08-01T12:29:35.420Z,45.61
2017-08-01T12:30:35.416Z,45.41
2017-08-01T12:31:35.512Z,45.02
2017-08-01T12:32:35.420Z,45.31
2017-08-01T12:33:35.420Z,45.21
2017-08-01T12:34:35.415Z,45.51
2017-08-01T12:35:35.412Z,45.31
2017-08-01T12:36:35.410Z,45.61
2017-08-01T12:37:35.407Z,45.7
2017-08-01T12:38:35.414Z,45.61
2017-08-01T12:39:35.414Z,45.61
2017-08-01T12:40:35.411Z,46.39
2017-08-01T12:41:35.556Z,45.8
2017-08-01T12:42:35.406Z,46
2017-08-01T12:43:35.408Z,45.78
2017-08-01T12:44:35.404Z,45.09
2017-08-01T12:45:35.401Z,45.19
2017-08-01T12:46:35.402Z,45
2017-08-01T12:47:35.531Z,45
2017-08-01T12:48:35.403Z,44.8
2017-08-01T12:49:35.501Z,45.29
2017-08-01T12:50:35.403Z,45.41
2017-08-01T12:51:35.499Z,45.51
2017-08-01T12:52:35.399Z,45.61
2017-08-01T12:53:35.496Z,45.51
2017-08-01T12:54:35.398Z,45.12
2017-08-01T12:55:35.391Z,45.12